createdAt,value
2022-10-13T00:00:14.190Z,7.00
2022-10-13T00:02:40.686Z,7.20
2022-10-13T00:05:07.460Z,6.97
2022-10-13T00:07:34.158Z,7.70
2022-10-13T00:10:00.665Z,7.22
2022-10-13T00:12:27.163Z,6.85
2022-10-13T00:14:53.747Z,7.00
2022-10-13T00:17:20.248Z,7.35
2022-10-13T00:19:46.883Z,7.25
2022-10-13T00:22:13.360Z,7.18
2022-10-13T00:24:39.829Z,7.30
2022-10-13T00:27:06.313Z,6.88
2022-10-13T00:29:32.786Z,6.85
2022-10-13T00:31:59.305Z,7.75
2022-10-13T00:34:25.847Z,8.05
2022-10-13T00:36:52.351Z,8.05
2022-10-13T00:39:18.848Z,8.50
2022-10-13T00:41:45.359Z,8.18
2022-10-13T00:44:50.549Z,9.02
2022-10-13T00:47:17.569Z,8.02
2022-10-13T00:49:44.362Z,9.15
2022-10-13T00:52:11.428Z,9.25
2022-10-13T00:54:38.077Z,7.90
2022-10-13T00:57:05.055Z,8.52
2022-10-13T00:59:31.775Z,7.95
2022-10-13T01:02:00.098Z,8.65
2022-10-13T01:04:31.870Z,9.02
2022-10-13T01:06:58.632Z,8.45
2022-10-13T01:09:25.168Z,8.93
2022-10-13T01:12:02.910Z,9.57
2022-10-13T01:14:47.122Z,9.65
2022-10-13T01:17:18.919Z,9.60
2022-10-13T01:20:20.732Z,10.48
2022-10-13T01:23:25.053Z,9.90
2022-10-13T01:26:12.695Z,9.98
2022-10-13T01:29:13.182Z,11.15
2022-10-13T01:31:42.569Z,10.55
2022-10-13T01:34:17.644Z,10.05
2022-10-13T01:36:58.961Z,11.00
2022-10-13T01:39:44.530Z,11.10
2022-10-13T01:42:20.091Z,10.82
2022-10-13T01:44:53.312Z,11.13
2022-10-13T01:47:22.122Z,13.05
2022-10-13T01:49:50.763Z,10.57
2022-10-13T01:52:20.464Z,11.60
2022-10-13T01:54:54.072Z,11.02
2022-10-13T01:57:39.673Z,10.82
2022-10-13T02:00:10.419Z,10.85
2022-10-13T02:02:43.726Z,11.50
2022-10-13T02:05:10.408Z,11.02
2022-10-13T02:07:46.115Z,12.50
2022-10-13T02:10:21.771Z,13.60
2022-10-13T02:13:01.451Z,12.20
2022-10-13T02:15:39.457Z,11.48
2022-10-13T02:18:08.638Z,11.73
2022-10-13T02:20:36.660Z,12.73
2022-10-13T02:23:09.192Z,12.77
2022-10-13T02:25:36.549Z,14.10
2022-10-13T02:28:04.079Z,12.15
2022-10-13T02:30:33.150Z,13.55
2022-10-13T02:33:01.637Z,14.15
2022-10-13T02:35:29.887Z,12.98
2022-10-13T02:37:56.874Z,13.02
2022-10-13T02:40:23.356Z,12.88
2022-10-13T02:42:49.907Z,14.07
2022-10-13T02:45:16.799Z,11.85
2022-10-13T02:47:43.478Z,12.30
2022-10-13T02:50:10.691Z,12.60
2022-10-13T02:52:37.630Z,13.07
2022-10-13T02:55:04.630Z,12.68
2022-10-13T02:57:31.212Z,12.38
2022-10-13T02:59:57.713Z,12.25
2022-10-13T03:02:25.827Z,13.07
2022-10-13T03:04:52.404Z,12.38
2022-10-13T03:07:18.976Z,11.82
2022-10-13T03:09:45.451Z,12.00
2022-10-13T03:12:11.974Z,13.40
2022-10-13T03:14:38.477Z,11.48
2022-10-13T03:17:08.754Z,13.02
2022-10-13T03:19:37.629Z,12.95
2022-10-13T03:22:04.139Z,12.85
2022-10-13T03:24:30.758Z,12.45
2022-10-13T03:26:57.266Z,13.35
2022-10-13T03:29:23.764Z,13.05
2022-10-13T03:31:50.343Z,11.55
2022-10-13T03:34:17.631Z,12.13
2022-10-13T03:36:44.185Z,13.82
2022-10-13T03:39:10.851Z,11.57
2022-10-13T03:41:37.390Z,14.85
2022-10-13T03:44:04.023Z,11.57
2022-10-13T03:46:31.713Z,10.80
2022-10-13T03:48:58.386Z,10.88
2022-10-13T03:51:25.363Z,9.93
2022-10-13T03:53:52.767Z,10.88
2022-10-13T03:56:25.265Z,11.57
2022-10-13T03:58:56.188Z,11.60
2022-10-13T04:01:24.792Z,12.93
2022-10-13T04:03:53.984Z,11.70
2022-10-13T04:06:20.555Z,12.68
2022-10-13T04:08:47.680Z,11.95
2022-10-13T04:11:15.412Z,14.63
2022-10-13T04:13:42.478Z,14.90
2022-10-13T04:16:13.906Z,15.45
2022-10-13T04:18:44.529Z,16.85
2022-10-13T04:21:14.113Z,15.13
2022-10-13T04:23:40.600Z,14.95
2022-10-13T04:26:07.142Z,15.45
2022-10-13T04:28:35.930Z,16.00
2022-10-13T04:31:03.619Z,17.77
2022-10-13T04:33:30.694Z,15.90
2022-10-13T04:35:57.601Z,16.67
2022-10-13T04:38:24.292Z,17.33
2022-10-13T04:40:50.791Z,15.90
2022-10-13T04:43:17.315Z,17.63
2022-10-13T04:45:43.910Z,17.20
2022-10-13T04:48:10.776Z,16.77
2022-10-13T04:50:37.725Z,16.00
2022-10-13T04:53:04.605Z,15.02
2022-10-13T04:55:31.352Z,15.35
2022-10-13T04:57:58.061Z,16.17
2022-10-13T05:00:24.807Z,15.98
2022-10-13T05:02:51.766Z,15.80
2022-10-13T05:05:18.642Z,15.50
2022-10-13T05:07:45.146Z,14.82
2022-10-13T05:10:11.845Z,14.50
2022-10-13T05:12:38.373Z,15.55
2022-10-13T05:15:05.266Z,14.52
2022-10-13T05:17:35.233Z,16.15
2022-10-13T05:20:02.191Z,14.15
2022-10-13T05:22:28.775Z,15.32
2022-10-13T05:24:55.326Z,14.82
2022-10-13T05:27:23.209Z,13.45
2022-10-13T05:29:49.785Z,13.10
2022-10-13T05:32:16.383Z,14.05
2022-10-13T05:34:42.955Z,14.38
2022-10-13T05:37:09.864Z,14.32
2022-10-13T05:39:36.707Z,14.15
2022-10-13T05:42:03.643Z,13.25
2022-10-13T05:44:30.692Z,13.32
2022-10-13T05:46:57.568Z,12.38
2022-10-13T05:49:24.333Z,12.75
2022-10-13T05:51:55.689Z,12.95
2022-10-13T05:54:30.991Z,14.75
2022-10-13T05:57:02.248Z,14.40
2022-10-13T05:59:32.963Z,13.93
2022-10-13T06:02:01.667Z,12.85
2022-10-13T06:04:38.923Z,12.63
2022-10-13T06:07:05.634Z,10.50
2022-10-13T06:09:38.045Z,10.13
2022-10-13T06:12:06.561Z,10.25
2022-10-13T06:14:33.289Z,11.10
2022-10-13T06:16:59.863Z,9.27
2022-10-13T06:19:29.161Z,9.82
2022-10-13T06:21:57.176Z,9.98
2022-10-13T06:24:25.405Z,9.55
2022-10-13T06:26:51.928Z,9.25
2022-10-13T06:29:18.477Z,8.10
2022-10-13T06:31:45.012Z,8.55
2022-10-13T06:34:12.269Z,8.95
2022-10-13T06:36:38.997Z,9.95
2022-10-13T06:39:05.511Z,7.80
2022-10-13T06:41:32.043Z,6.88
2022-10-13T06:43:58.547Z,8.73
2022-10-13T06:46:25.570Z,7.55
2022-10-13T06:48:52.373Z,8.02
2022-10-13T06:51:19.341Z,7.70
2022-10-13T06:53:45.862Z,7.47
2022-10-13T06:56:12.612Z,7.93
2022-10-13T06:58:39.130Z,7.28
2022-10-13T07:01:06.527Z,7.50
2022-10-13T07:03:33.358Z,7.47
2022-10-13T07:06:04.748Z,7.78
2022-10-13T07:08:32.541Z,7.28
2022-10-13T07:10:59.218Z,8.18
2022-10-13T07:13:26.259Z,8.35
2022-10-13T07:15:53.002Z,7.65
2022-10-13T07:18:19.877Z,7.57
2022-10-13T07:20:46.854Z,7.80
2022-10-13T07:23:13.521Z,7.68
2022-10-13T07:25:40.075Z,7.13
2022-10-13T07:28:09.935Z,8.27
2022-10-13T07:30:39.144Z,8.27
2022-10-13T07:33:05.648Z,9.35
2022-10-13T07:35:32.514Z,8.48
2022-10-13T07:37:59.035Z,7.63
2022-10-13T07:40:25.692Z,7.20
2022-10-13T07:42:52.237Z,7.75
2022-10-13T07:45:18.791Z,7.78
2022-10-13T07:47:45.286Z,6.07
2022-10-13T07:50:11.958Z,7.10
2022-10-13T07:52:38.694Z,7.65
2022-10-13T07:55:05.934Z,7.70
2022-10-13T07:57:32.473Z,7.15
2022-10-13T07:59:59.087Z,6.35
2022-10-13T08:02:26.298Z,6.85
2022-10-13T08:04:52.927Z,6.90
2022-10-13T08:07:19.673Z,6.03
2022-10-13T08:09:46.364Z,5.97
2022-10-13T08:12:12.867Z,4.22
2022-10-13T08:14:39.527Z,5.07
2022-10-13T08:17:06.234Z,4.32
2022-10-13T08:19:32.762Z,4.22
2022-10-13T08:22:00.283Z,4.22
2022-10-13T08:24:28.040Z,5.90
2022-10-13T08:26:57.990Z,7.88
2022-10-13T08:29:26.938Z,6.45
2022-10-13T08:31:55.401Z,10.63
2022-10-13T08:34:23.897Z,9.48
2022-10-13T08:36:53.646Z,7.75
2022-10-13T08:39:21.783Z,7.57
2022-10-13T08:41:48.381Z,7.78
2022-10-13T08:47:16.047Z,8.40
2022-10-13T08:49:43.661Z,8.18
2022-10-13T08:52:19.093Z,9.05
2022-10-13T08:54:46.381Z,8.93
2022-10-13T08:57:13.304Z,6.68
2022-10-13T08:59:39.965Z,7.85
2022-10-13T09:02:33.005Z,8.65
2022-10-13T09:05:03.325Z,8.20
2022-10-13T09:07:35.277Z,7.13
2022-10-13T09:10:01.812Z,8.40
2022-10-13T09:12:28.336Z,7.78
2022-10-13T09:15:05.428Z,7.70
2022-10-13T09:17:33.929Z,7.35
2022-10-13T09:20:27.722Z,7.53
2022-10-13T09:23:02.359Z,7.22
2022-10-13T09:25:29.581Z,7.72
2022-10-13T09:27:58.876Z,7.82
2022-10-13T09:30:30.521Z,7.88
2022-10-13T09:33:09.146Z,7.95
2022-10-13T09:35:38.660Z,8.70
2022-10-13T09:38:09.289Z,8.13
2022-10-13T09:40:37.123Z,8.38
2022-10-13T09:43:17.418Z,7.93
2022-10-13T09:45:44.180Z,7.25
2022-10-13T09:48:22.787Z,7.80
2022-10-13T09:50:51.971Z,7.00
2022-10-13T09:53:24.436Z,6.57
2022-10-13T09:56:08.106Z,6.32
2022-10-13T09:58:42.404Z,7.22
2022-10-13T10:01:18.926Z,7.28
2022-10-13T10:03:46.459Z,6.70
2022-10-13T10:06:16.289Z,7.32
2022-10-13T10:09:07.852Z,7.20
2022-10-13T10:11:40.912Z,6.32
2022-10-13T10:14:27.585Z,7.15
2022-10-13T10:17:37.001Z,6.43
2022-10-13T10:20:38.671Z,6.30
2022-10-13T10:23:07.583Z,6.90
2022-10-13T10:26:05.194Z,6.82
2022-10-13T10:28:49.809Z,6.25
2022-10-13T10:31:39.692Z,6.30
2022-10-13T10:34:15.354Z,6.93
2022-10-13T10:37:04.921Z,7.38
2022-10-13T10:39:40.345Z,8.10
2022-10-13T10:42:39.196Z,7.20
2022-10-13T10:45:17.050Z,6.82
2022-10-13T10:47:47.871Z,7.05
2022-10-13T10:50:17.862Z,6.22
2022-10-13T10:53:15.990Z,7.70
2022-10-13T10:55:47.424Z,6.95
2022-10-13T10:58:13.903Z,6.70
2022-10-13T11:01:12.088Z,7.40
2022-10-13T11:04:17.146Z,7.90
2022-10-13T11:06:43.725Z,6.95
2022-10-13T11:09:11.765Z,8.80
2022-10-13T11:11:40.933Z,6.68
2022-10-13T11:14:07.381Z,6.78
2022-10-13T11:16:38.401Z,7.85
2022-10-13T11:19:09.008Z,6.82
2022-10-13T11:21:53.826Z,6.82
2022-10-13T11:24:53.770Z,6.35
2022-10-13T11:27:20.258Z,6.55
2022-10-13T11:29:46.911Z,6.00
2022-10-13T11:32:25.708Z,7.10
2022-10-13T11:35:13.429Z,6.13
2022-10-13T11:38:05.606Z,5.80
2022-10-13T11:40:35.813Z,6.47
2022-10-13T11:43:24.526Z,6.22
2022-10-13T11:46:21.985Z,6.90
2022-10-13T11:49:15.848Z,7.00
2022-10-13T11:52:20.375Z,5.90
2022-10-13T11:55:23.713Z,6.32
2022-10-13T11:57:50.269Z,5.75
2022-10-13T12:00:19.275Z,5.28
2022-10-13T12:02:51.576Z,6.63
2022-10-13T12:05:23.347Z,5.80
2022-10-13T12:07:52.189Z,6.38
2022-10-13T12:10:28.503Z,6.65
2022-10-13T12:12:55.734Z,6.53
2022-10-13T12:15:34.161Z,6.20
2022-10-13T12:18:01.595Z,5.38
2022-10-13T12:20:31.324Z,6.25
2022-10-13T12:22:58.290Z,5.75
2022-10-13T12:25:29.228Z,6.10
2022-10-13T12:27:59.844Z,5.70
2022-10-13T12:30:28.370Z,5.70
2022-10-13T12:32:57.040Z,5.50
2022-10-13T12:35:26.957Z,5.28
2022-10-13T12:37:55.472Z,6.22
2022-10-13T12:40:23.458Z,7.88
2022-10-13T12:42:50.878Z,5.90
2022-10-13T12:45:23.467Z,5.93
2022-10-13T12:47:52.245Z,5.65
2022-10-13T12:50:28.143Z,5.90
2022-10-13T12:53:03.606Z,5.47
2022-10-13T12:55:31.473Z,6.50
2022-10-13T12:57:58.301Z,5.10
2022-10-13T13:00:27.967Z,6.82
2022-10-13T13:02:57.416Z,5.32
2022-10-13T13:05:50.813Z,5.80
2022-10-13T13:08:27.209Z,5.78
2022-10-13T13:10:55.433Z,5.57
2022-10-13T13:13:23.809Z,5.93
2022-10-13T13:15:50.908Z,5.00
2022-10-13T13:18:29.548Z,5.50
2022-10-13T13:20:56.253Z,5.60
2022-10-13T13:23:23.674Z,5.72
2022-10-13T13:26:09.863Z,5.32
2022-10-13T13:28:36.791Z,4.93
2022-10-13T13:31:05.751Z,5.60
2022-10-13T13:33:33.625Z,5.47
2022-10-13T13:36:00.162Z,5.00
2022-10-13T13:38:26.952Z,6.07
2022-10-13T13:40:53.506Z,5.32
2022-10-13T13:43:20.080Z,5.70
2022-10-13T13:45:46.639Z,4.75
2022-10-13T13:48:13.293Z,5.57
2022-10-13T13:50:40.552Z,4.43
2022-10-13T13:53:09.846Z,4.72
2022-10-13T13:55:36.525Z,4.30
2022-10-13T13:58:03.377Z,4.28
2022-10-13T14:00:29.918Z,4.40
2022-10-13T14:02:57.412Z,4.45
2022-10-13T14:05:24.190Z,4.32
2022-10-13T14:07:53.781Z,4.15
2022-10-13T14:10:20.290Z,4.80
2022-10-13T14:12:46.796Z,3.60
2022-10-13T14:15:13.311Z,5.00
2022-10-13T14:17:39.802Z,4.70
2022-10-13T14:20:06.852Z,5.45
2022-10-13T14:22:33.360Z,5.05
2022-10-13T14:24:59.836Z,4.55
2022-10-13T14:27:26.346Z,5.20
2022-10-13T14:29:52.842Z,5.05
2022-10-13T14:32:19.596Z,4.47
2022-10-13T14:34:46.290Z,4.38
2022-10-13T14:37:12.932Z,5.30
2022-10-13T14:39:41.510Z,5.03
2022-10-13T14:42:09.811Z,4.63
2022-10-13T14:44:36.352Z,4.63
2022-10-13T14:47:03.140Z,5.43
2022-10-13T14:49:29.643Z,4.55
2022-10-13T14:51:56.245Z,4.40
2022-10-13T14:54:22.936Z,4.32
2022-10-13T14:56:49.672Z,4.70
2022-10-13T14:59:16.173Z,4.93
2022-10-13T15:01:43.240Z,4.30
2022-10-13T15:04:09.812Z,5.25
2022-10-13T15:06:39.557Z,6.43
2022-10-13T15:11:33.786Z,5.20
2022-10-13T15:14:00.375Z,5.07
2022-10-13T15:16:29.631Z,5.05
2022-10-13T15:18:56.616Z,4.72
2022-10-13T15:21:23.824Z,6.28
2022-10-13T15:23:50.509Z,6.38
2022-10-13T15:26:19.081Z,5.05
2022-10-13T15:28:48.433Z,5.20
2022-10-13T15:31:16.776Z,5.30
2022-10-13T15:33:45.260Z,5.65
2022-10-13T15:36:11.830Z,6.10
2022-10-13T15:38:38.390Z,5.40
2022-10-13T15:41:05.982Z,5.28
2022-10-13T15:43:32.655Z,5.10
2022-10-13T15:46:04.413Z,5.35
2022-10-13T15:48:31.796Z,5.70
2022-10-13T15:50:58.443Z,4.70
2022-10-13T15:53:25.382Z,5.25
2022-10-13T15:55:52.308Z,5.60
2022-10-13T15:58:19.191Z,4.97
2022-10-13T16:00:48.981Z,4.32
2022-10-13T16:03:18.183Z,3.85
2022-10-13T16:05:46.187Z,4.30
2022-10-13T16:08:13.458Z,4.32
2022-10-13T16:10:41.953Z,3.60
2022-10-13T16:13:12.412Z,3.70
2022-10-13T16:15:39.014Z,3.42
2022-10-13T16:18:05.736Z,3.80
2022-10-13T16:20:35.130Z,4.13
2022-10-13T16:23:03.197Z,4.00
2022-10-13T16:25:30.370Z,3.22
2022-10-13T16:27:56.887Z,4.00
2022-10-13T16:30:23.394Z,5.00
2022-10-13T16:32:49.943Z,6.88
2022-10-13T16:35:16.796Z,5.15
2022-10-13T16:37:43.576Z,5.55
2022-10-13T16:40:10.654Z,4.82
2022-10-13T16:42:37.355Z,4.85
2022-10-13T16:45:04.442Z,4.72
2022-10-13T16:47:31.266Z,4.05
2022-10-13T16:49:58.063Z,3.72
2022-10-13T16:52:24.685Z,3.33
2022-10-13T16:54:51.511Z,3.30
2022-10-13T16:57:18.502Z,3.90
2022-10-13T16:59:45.239Z,4.35
2022-10-13T17:02:15.549Z,3.58
2022-10-13T17:04:42.828Z,3.60
2022-10-13T17:07:09.602Z,3.55
2022-10-13T17:09:36.120Z,3.47
2022-10-13T17:12:03.828Z,4.03
2022-10-13T17:14:30.923Z,3.90
2022-10-13T17:16:58.327Z,4.30
2022-10-13T17:19:25.366Z,4.55
2022-10-13T17:21:51.955Z,4.30
2022-10-13T17:24:18.967Z,4.18
2022-10-13T17:26:45.657Z,3.72
2022-10-13T17:29:12.332Z,4.25
2022-10-13T17:31:38.840Z,4.78
2022-10-13T17:34:06.292Z,4.07
2022-10-13T17:36:34.282Z,4.07
2022-10-13T17:39:07.874Z,4.00
2022-10-13T17:41:34.908Z,4.00
2022-10-13T17:44:02.111Z,3.85
2022-10-13T17:46:36.758Z,3.90
2022-10-13T17:49:05.153Z,3.80
2022-10-13T17:51:31.680Z,3.50
2022-10-13T17:53:59.596Z,3.58
2022-10-13T17:56:26.780Z,4.22
2022-10-13T17:58:53.924Z,3.88
2022-10-13T18:01:34.008Z,3.78
2022-10-13T18:04:22.215Z,4.22
2022-10-13T18:06:48.777Z,3.97
2022-10-13T18:09:18.662Z,3.83
2022-10-13T18:11:50.188Z,4.75
2022-10-13T18:14:18.009Z,4.47
2022-10-13T18:16:44.685Z,4.50
2022-10-13T18:19:11.212Z,4.55
2022-10-13T18:21:37.818Z,4.40
2022-10-13T18:24:04.660Z,4.70
2022-10-13T18:26:34.980Z,4.13
2022-10-13T18:29:02.495Z,4.18
2022-10-13T18:31:31.740Z,3.80
2022-10-13T18:34:01.088Z,4.20
2022-10-13T18:36:34.143Z,4.32
2022-10-13T18:39:07.477Z,4.40
2022-10-13T18:41:36.279Z,4.45
2022-10-13T18:44:06.077Z,4.07
2022-10-13T18:46:34.058Z,4.30
2022-10-13T18:49:00.716Z,4.15
2022-10-13T18:51:33.418Z,4.30
2022-10-13T18:54:02.598Z,4.60
2022-10-13T18:56:30.521Z,4.10
2022-10-13T18:59:00.264Z,4.30
2022-10-13T19:01:31.125Z,4.32
2022-10-13T19:03:58.540Z,4.50
2022-10-13T19:06:27.145Z,4.53
2022-10-13T19:09:00.613Z,4.75
2022-10-13T19:11:29.044Z,4.60
2022-10-13T19:13:55.943Z,4.05
2022-10-13T19:16:24.943Z,4.20
2022-10-13T19:18:52.548Z,4.40
2022-10-13T19:21:20.707Z,2.20
2022-10-13T19:23:52.937Z,2.35
2022-10-13T19:26:25.295Z,1.80
2022-10-13T19:28:57.079Z,2.70
2022-10-13T19:31:25.795Z,1.90
2022-10-13T19:33:53.034Z,6.28
2022-10-13T19:36:28.049Z,3.20
2022-10-13T19:38:55.011Z,2.45
2022-10-13T19:41:22.521Z,2.13
2022-10-13T19:43:50.315Z,2.83
2022-10-13T19:46:18.377Z,1.85
2022-10-13T19:48:45.653Z,2.75
2022-10-13T19:51:13.232Z,1.95
2022-10-13T19:53:40.191Z,1.85
2022-10-13T19:56:07.667Z,1.40
2022-10-13T19:58:34.766Z,1.70
2022-10-13T20:01:04.427Z,2.28
2022-10-13T20:03:31.375Z,2.22
2022-10-13T20:05:57.941Z,7.65
2022-10-13T20:08:24.583Z,6.03
2022-10-13T20:10:51.275Z,4.68
2022-10-13T20:13:17.779Z,2.35
2022-10-13T20:15:44.356Z,4.00
2022-10-13T20:18:13.084Z,2.25
2022-10-13T20:20:41.023Z,2.10
2022-10-13T20:23:07.699Z,2.28
2022-10-13T20:25:38.087Z,2.47
2022-10-13T20:28:05.263Z,2.38
2022-10-13T20:30:32.311Z,5.43
2022-10-13T20:32:59.063Z,1.30
2022-10-13T20:35:25.760Z,3.38
2022-10-13T20:37:52.261Z,1.98
2022-10-13T20:40:19.015Z,1.40
2022-10-13T20:42:50.756Z,1.05
2022-10-13T20:45:19.174Z,1.23
2022-10-13T20:47:46.996Z,1.50
2022-10-13T20:50:14.445Z,1.45
2022-10-13T20:52:41.277Z,1.85
2022-10-13T20:55:08.246Z,1.45
2022-10-13T20:57:34.751Z,1.30
2022-10-13T21:00:01.357Z,1.30
2022-10-13T21:02:27.864Z,1.20
2022-10-13T21:04:54.339Z,1.92
2022-10-13T21:07:21.217Z,1.00
2022-10-13T21:09:53.483Z,1.73
2022-10-13T21:12:21.154Z,1.50
2022-10-13T21:14:47.652Z,1.30
2022-10-13T21:17:14.150Z,1.38
2022-10-13T21:19:40.684Z,1.40
2022-10-13T21:22:07.161Z,1.35
2022-10-13T21:24:33.770Z,1.27
2022-10-13T21:27:00.260Z,1.38
2022-10-13T21:29:26.875Z,1.80
2022-10-13T21:31:53.423Z,1.38
2022-10-13T21:34:19.922Z,1.73
2022-10-13T21:36:46.584Z,1.55
2022-10-13T21:39:13.389Z,1.25
2022-10-13T21:41:39.917Z,1.40
2022-10-13T21:44:06.431Z,1.58
2022-10-13T21:46:34.676Z,1.10
2022-10-13T21:49:04.613Z,1.23
2022-10-13T21:51:32.691Z,1.20
2022-10-13T21:54:05.904Z,1.23
2022-10-13T21:56:33.477Z,1.55
2022-10-13T21:59:00.511Z,1.50
2022-10-13T22:01:27.785Z,1.40
2022-10-13T22:03:56.934Z,1.60
2022-10-13T22:06:24.423Z,1.73
2022-10-13T22:08:52.563Z,1.15
2022-10-13T22:11:19.352Z,1.38
2022-10-13T22:13:46.671Z,1.45
2022-10-13T22:16:25.323Z,1.40
2022-10-13T22:18:53.583Z,1.38
2022-10-13T22:21:23.230Z,1.38
2022-10-13T22:23:50.259Z,1.38
2022-10-13T22:26:18.369Z,1.55
2022-10-13T22:28:45.009Z,1.23
2022-10-13T22:31:13.263Z,1.05
2022-10-13T22:33:41.648Z,1.27
2022-10-13T22:36:17.056Z,1.23
2022-10-13T22:38:45.633Z,1.08
2022-10-13T22:41:13.196Z,1.67
2022-10-13T22:43:39.763Z,1.17
2022-10-13T22:46:06.441Z,1.27
2022-10-13T22:48:36.969Z,1.35
2022-10-13T22:51:07.267Z,1.13
2022-10-13T22:53:34.460Z,1.00
2022-10-13T22:56:04.911Z,1.02
2022-10-13T22:58:31.428Z,1.23
2022-10-13T23:01:04.767Z,1.13
2022-10-13T23:03:31.402Z,1.08
2022-10-13T23:05:57.994Z,1.20
2022-10-13T23:08:24.527Z,1.08
2022-10-13T23:10:51.114Z,1.13
2022-10-13T23:13:17.614Z,0.95
2022-10-13T23:15:44.206Z,1.15
2022-10-13T23:18:10.730Z,1.42
2022-10-13T23:20:41.358Z,1.40
2022-10-13T23:23:08.087Z,1.25
2022-10-13T23:25:36.156Z,0.95
2022-10-13T23:28:03.365Z,1.52
2022-10-13T23:30:29.907Z,0.93
2022-10-13T23:32:56.454Z,1.52
2022-10-13T23:35:22.989Z,1.13
2022-10-13T23:37:52.734Z,1.10
2022-10-13T23:40:19.833Z,1.10
2022-10-13T23:42:46.386Z,1.27
2022-10-13T23:45:12.911Z,0.90
2022-10-13T23:47:39.436Z,1.00
2022-10-13T23:50:06.392Z,0.85
2022-10-13T23:52:32.916Z,0.93
2022-10-13T23:54:59.384Z,0.90
2022-10-13T23:57:25.846Z,0.90
2022-10-13T23:59:52.341Z,0.98
